Time;durP1;ratioP1;P1;durP2;ratioP2;P2;SDS_P1;SDS_P2;PMS_P1;PMS_P2;Temp;Humidity;BMP_temperature;BMP_pressure;BME280_temperature;BME280_humidity;BME280_pressure;Samples;Min_cycle;Max_cycle;Signal;HPM_P1;HPM_P2
2021/11/25 00:03:39;;;;;;;3.40;1.58;;;;;;;;;;6322126;22;20509;31
2021/11/25 00:33:34;;;;;;;2.95;2.35;;;;;;;;;;6172168;23;23320;31
2021/11/25 00:47:06;;;;;;;3.03;2.13;;;;;;;;;;6255627;22;20200;31
2021/11/25 00:53:58;;;;;;;2.72;2.25;;;;;;;;;;6255096;22;20192;31
2021/11/25 01:00:46;;;;;;;4.53;2.53;;;;;;;;;;6262545;22;20208;31
2021/11/25 01:14:49;;;;;;;4.53;3.40;;;;;;;;;;6256095;22;20204;31
2021/11/25 01:28:15;;;;;;;6.65;4.28;;;;;;;;;;6229824;22;20206;31
2021/11/25 01:35:10;;;;;;;6.88;4.85;;;;;;;;;;6179089;22;20768;31
2021/11/25 01:46:46;;;;;;;6.95;5.43;;;;;;;;;;6206061;22;21166;31
2021/11/25 02:07:26;;;;;;;10.63;7.32;;;;;;;;;;6260422;22;20557;31
2021/11/25 02:21:14;;;;;;;9.38;6.93;;;;;;;;;;6197407;22;20257;31
2021/11/25 02:23:40;;;;;;;10.00;7.25;;;;;;;;;;6195216;22;20191;31
2021/11/25 02:28:13;;;;;;;10.60;7.50;;;;;;;;;;6177430;22;23310;31
2021/11/25 02:49:09;;;;;;;9.15;6.90;;;;;;;;;;6177447;22;20554;31
2021/11/25 03:03:00;;;;;;;12.20;8.50;;;;;;;;;;6231542;22;20850;31
2021/11/25 03:12:25;;;;;;;11.95;8.15;;;;;;;;;;6346550;22;20194;31
2021/11/25 03:24:00;;;;;;;12.73;9.40;;;;;;;;;;6209654;22;23570;31
2021/11/25 03:37:25;;;;;;;14.50;9.95;;;;;;;;;;6292648;22;20558;31
2021/11/25 03:58:08;;;;;;;13.15;8.98;;;;;;;;;;6323351;22;20505;31
2021/11/25 04:05:02;;;;;;;12.95;8.73;;;;;;;;;;6205582;22;20528;31
2021/11/25 04:11:52;;;;;;;15.07;9.13;;;;;;;;;;6175750;22;20583;31
2021/11/25 04:18:51;;;;;;;12.23;8.18;;;;;;;;;;6212095;22;20276;31
2021/11/25 04:25:34;;;;;;;12.63;8.13;;;;;;;;;;6291520;22;20554;-59
2021/11/25 04:46:11;;;;;;;12.68;8.05;;;;;;;;;;6323239;22;20517;31
2021/11/25 05:00:07;;;;;;;11.90;8.35;;;;;;;;;;6262465;22;21355;31
2021/11/25 05:34:48;;;;;;;12.75;8.65;;;;;;;;;;6206415;22;20519;-59
2021/11/25 05:43:56;;;;;;;12.48;9.32;;;;;;;;;;6166449;22;20191;31
2021/11/25 06:04:39;;;;;;;14.80;8.80;;;;;;;;;;6204255;22;20206;31
2021/11/25 06:16:00;;;;;;;10.13;7.70;;;;;;;;;;6213586;22;20267;31
2021/11/25 06:31:58;;;;;;;11.57;9.10;;;;;;;;;;6137149;23;20207;31
2021/11/25 06:42:55;;;;;;;14.98;9.38;;;;;;;;;;6257977;22;20533;-63
2021/11/25 06:52:19;;;;;;;10.68;8.63;;;;;;;;;;6134891;23;20204;31
2021/11/25 07:03:02;;;;;;;12.57;9.50;;;;;;;;;;6322169;22;20522;31
2021/11/25 07:10:00;;;;;;;13.05;10.20;;;;;;;;;;6204586;22;20532;-60
2021/11/25 07:23:45;;;;;;;12.63;9.80;;;;;;;;;;6260898;22;20977;-60
2021/11/25 07:33:01;;;;;;;12.02;9.27;;;;;;;;;;6288551;22;20204;31
2021/11/25 07:53:35;;;;;;;11.63;8.43;;;;;;;;;;6212407;22;20218;31
2021/11/25 08:05:10;;;;;;;12.82;7.78;;;;;;;;;;6261190;22;20494;-58
2021/11/25 08:12:41;;;;;;;10.27;8.55;;;;;;;;;;6292063;22;20539;31
2021/11/25 08:19:25;;;;;;;9.88;7.47;;;;;;;;;;6290606;22;20523;31
2021/11/25 08:35:31;;;;;;;16.17;10.07;;;;;;;;;;6313304;22;20200;-63
2021/11/25 08:38:00;;;;;;;10.98;8.15;;;;;;;;;;6352984;22;20185;-62
2021/11/25 08:40:26;;;;;;;10.43;7.93;;;;;;;;;;6352937;22;20142;-63
2021/11/25 08:42:54;;;;;;;10.52;7.43;;;;;;;;;;6352267;22;20282;-63
2021/11/25 08:45:20;;;;;;;10.20;7.80;;;;;;;;;;6352728;22;20142;-62
2021/11/25 08:47:46;;;;;;;10.68;8.55;;;;;;;;;;6353222;22;20189;-62
2021/11/25 08:50:13;;;;;;;12.40;7.80;;;;;;;;;;6353109;22;20154;-63
2021/11/25 08:52:39;;;;;;;11.48;8.00;;;;;;;;;;6353543;22;20157;-63
2021/11/25 08:55:06;;;;;;;13.13;8.43;;;;;;;;;;6353352;22;20138;-63
2021/11/25 08:57:32;;;;;;;10.98;7.95;;;;;;;;;;6353202;22;20133;-63
2021/11/25 08:59:58;;;;;;;10.40;8.15;;;;;;;;;;6353350;22;20218;-63
2021/11/25 09:02:24;;;;;;;10.52;7.78;;;;;;;;;;6354398;22;20162;-63
2021/11/25 09:04:50;;;;;;;9.80;7.20;;;;;;;;;;6353587;22;20138;-62
2021/11/25 09:07:16;;;;;;;11.65;7.55;;;;;;;;;;6354016;22;20557;-62
2021/11/25 09:09:42;;;;;;;9.63;7.22;;;;;;;;;;6353348;22;20153;-63
2021/11/25 09:12:08;;;;;;;9.20;6.93;;;;;;;;;;6352722;22;20577;-63
2021/11/25 09:14:34;;;;;;;8.88;7.18;;;;;;;;;;6353022;22;20195;-62
2021/11/25 09:17:01;;;;;;;9.48;7.47;;;;;;;;;;6353529;22;20164;-62
2021/11/25 09:19:27;;;;;;;10.38;7.47;;;;;;;;;;6354238;22;20169;-64
2021/11/25 09:21:55;;;;;;;10.60;7.63;;;;;;;;;;6353143;22;20164;-63
2021/11/25 09:24:21;;;;;;;9.88;7.35;;;;;;;;;;6352673;22;20148;-63
2021/11/25 09:26:47;;;;;;;7.70;6.45;;;;;;;;;;6353027;22;20213;-63
2021/11/25 09:29:14;;;;;;;10.27;7.05;;;;;;;;;;6352090;22;20145;-63
2021/11/25 09:31:40;;;;;;;10.30;7.57;;;;;;;;;;6352326;22;20165;-63
2021/11/25 09:34:07;;;;;;;9.75;7.60;;;;;;;;;;6350911;22;20134;-63
2021/11/25 09:36:34;;;;;;;9.30;6.80;;;;;;;;;;6351608;22;20449;-63
2021/11/25 09:39:01;;;;;;;8.80;5.93;;;;;;;;;;6351984;22;20160;-63
2021/11/25 09:41:27;;;;;;;9.38;6.65;;;;;;;;;;6351857;22;20142;-63
2021/11/25 09:43:53;;;;;;;9.65;7.53;;;;;;;;;;6346082;22;20576;-64
2021/11/25 09:46:21;;;;;;;8.60;6.53;;;;;;;;;;6344896;22;20441;-63
2021/11/25 09:48:48;;;;;;;9.52;6.13;;;;;;;;;;6344706;22;20142;-62
2021/11/25 09:51:14;;;;;;;9.52;6.75;;;;;;;;;;6344360;22;20242;-63
2021/11/25 09:53:40;;;;;;;8.57;6.85;;;;;;;;;;6344360;22;20496;-62
2021/11/25 09:56:07;;;;;;;8.93;6.30;;;;;;;;;;6344964;22;20145;-63
2021/11/25 09:58:34;;;;;;;8.27;6.82;;;;;;;;;;6345016;22;20142;-62
2021/11/25 10:01:03;;;;;;;8.23;6.65;;;;;;;;;;6344492;22;20138;-62
2021/11/25 10:03:29;;;;;;;10.00;6.75;;;;;;;;;;6344425;22;20154;-63
2021/11/25 10:05:56;;;;;;;10.30;7.32;;;;;;;;;;6344606;22;20202;-63
2021/11/25 10:08:24;;;;;;;8.48;6.28;;;;;;;;;;6344853;22;20184;-63
2021/11/25 10:11:00;;;;;;;8.50;6.55;;;;;;;;;;6344244;22;20570;-63
2021/11/25 10:13:33;;;;;;;6.95;6.03;;;;;;;;;;6344674;22;20138;-63
2021/11/25 10:15:59;;;;;;;8.18;6.22;;;;;;;;;;6344369;22;20498;-63
2021/11/25 10:18:25;;;;;;;10.50;7.18;;;;;;;;;;6344234;22;20639;-63
2021/11/25 10:20:52;;;;;;;9.00;6.47;;;;;;;;;;6344353;22;20142;-63
2021/11/25 10:23:23;;;;;;;7.18;6.43;;;;;;;;;;6345016;22;20266;-63
2021/11/25 10:25:50;;;;;;;8.25;6.25;;;;;;;;;;6344389;22;20142;-63
2021/11/25 10:28:21;;;;;;;7.07;5.65;;;;;;;;;;6344921;22;20557;-63
2021/11/25 10:30:48;;;;;;;8.30;6.00;;;;;;;;;;6344839;22;20199;-63
2021/11/25 10:33:14;;;;;;;8.90;6.30;;;;;;;;;;6344471;22;20142;-63
2021/11/25 10:35:53;;;;;;;7.90;6.15;;;;;;;;;;6343989;22;20192;-63
2021/11/25 10:40:45;;;;;;;7.20;5.63;;;;;;;;;;6345354;22;20225;-63
2021/11/25 10:43:21;;;;;;;8.07;5.60;;;;;;;;;;6344964;22;20134;-63
2021/11/25 10:45:48;;;;;;;6.47;5.40;;;;;;;;;;6317068;22;20134;-63
2021/11/25 10:48:25;;;;;;;7.20;5.45;;;;;;;;;;6344742;22;20169;-64
2021/11/25 10:50:51;;;;;;;7.63;5.30;;;;;;;;;;6345178;22;20164;-64
2021/11/25 10:53:17;;;;;;;8.25;5.65;;;;;;;;;;6345076;22;20134;-64
2021/11/25 10:55:43;;;;;;;6.35;5.30;;;;;;;;;;6344311;22;20138;-64
2021/11/25 10:58:11;;;;;;;7.55;5.10;;;;;;;;;;6344416;22;20202;-63
2021/11/25 11:00:39;;;;;;;7.60;4.88;;;;;;;;;;6345225;22;20508;-63
2021/11/25 11:03:05;;;;;;;8.35;5.50;;;;;;;;;;6345053;22;20620;-63
2021/11/25 11:05:32;;;;;;;7.20;5.30;;;;;;;;;;6345532;22;20164;-62
2021/11/25 11:08:05;;;;;;;7.40;5.50;;;;;;;;;;6345121;22;20134;-62
2021/11/25 11:10:32;;;;;;;8.75;5.97;;;;;;;;;;6344743;22;20621;-62
2021/11/25 11:13:14;;;;;;;7.13;5.78;;;;;;;;;;6345513;22;20483;-63
2021/11/25 11:16:09;;;;;;;6.80;5.30;;;;;;;;;;6317667;22;20134;-63
2021/11/25 11:21:29;;;;;;;8.43;6.18;;;;;;;;;;6356901;22;20166;-63
2021/11/25 11:23:56;;;;;;;10.30;6.40;;;;;;;;;;6345626;22;20538;-62
2021/11/25 11:26:22;;;;;;;7.00;5.63;;;;;;;;;;6339408;22;20158;-62
2021/11/25 11:28:48;;;;;;;8.38;6.60;;;;;;;;;;6339293;22;20202;-62
2021/11/25 11:31:15;;;;;;;8.77;6.40;;;;;;;;;;6338923;22;20256;-60
2021/11/25 11:33:41;;;;;;;8.35;6.47;;;;;;;;;;6339206;22;20558;-61
2021/11/25 11:36:07;;;;;;;8.13;6.45;;;;;;;;;;6339056;22;20566;-59
2021/11/25 11:38:35;;;;;;;9.50;6.63;;;;;;;;;;6338574;22;20154;-61
2021/11/25 11:41:02;;;;;;;8.68;6.57;;;;;;;;;;6338792;22;20429;-62
2021/11/25 11:43:28;;;;;;;8.52;6.28;;;;;;;;;;6338848;22;20142;-62
2021/11/25 11:45:54;;;;;;;8.60;6.60;;;;;;;;;;6338642;22;20222;-62
2021/11/25 11:48:21;;;;;;;10.45;6.85;;;;;;;;;;6338735;22;20143;-62
2021/11/25 11:50:53;;;;;;;8.98;6.63;;;;;;;;;;6338576;22;20229;-62
2021/11/25 11:53:20;;;;;;;9.13;6.75;;;;;;;;;;6338581;22;20230;-62
2021/11/25 11:56:05;;;;;;;9.18;6.38;;;;;;;;;;6338529;22;20576;-61
2021/11/25 11:58:32;;;;;;;8.05;6.55;;;;;;;;;;6338867;22;20205;-61
2021/11/25 12:01:17;;;;;;;9.32;6.43;;;;;;;;;;6339044;22;20157;-60
2021/11/25 12:03:47;;;;;;;11.32;7.38;;;;;;;;;;6338903;22;20169;-62
2021/11/25 12:06:33;;;;;;;10.98;8.00;;;;;;;;;;6338762;22;20620;-62
2021/11/25 12:09:26;;;;;;;9.85;7.60;;;;;;;;;;6338644;22;20138;-62
2021/11/25 12:11:59;;;;;;;11.57;8.45;;;;;;;;;;6333101;22;20189;-60
2021/11/25 12:14:26;;;;;;;12.63;8.60;;;;;;;;;;6338712;22;20134;-61
2021/11/25 12:16:55;;;;;;;12.43;8.40;;;;;;;;;;6338864;22;20344;-60
2021/11/25 12:19:29;;;;;;;12.30;8.98;;;;;;;;;;6338774;22;20158;-61
2021/11/25 12:21:56;;;;;;;13.07;9.02;;;;;;;;;;6338269;22;20145;-61
2021/11/25 12:24:25;;;;;;;12.27;8.88;;;;;;;;;;6338448;22;20146;-60
2021/11/25 12:27:09;;;;;;;10.90;8.73;;;;;;;;;;6338736;22;20187;-62
2021/11/25 12:29:35;;;;;;;14.75;9.30;;;;;;;;;;6338769;22;20142;-61
2021/11/25 12:35:17;;;;;;;13.55;9.65;;;;;;;;;;6338826;22;20142;-61
2021/11/25 12:37:46;;;;;;;13.18;9.57;;;;;;;;;;6338440;22;20299;-60
2021/11/25 12:40:15;;;;;;;13.60;9.60;;;;;;;;;;6339814;22;20436;-61
2021/11/25 12:42:42;;;;;;;13.63;9.52;;;;;;;;;;6340216;22;20463;-62
2021/11/25 12:45:18;;;;;;;14.38;9.82;;;;;;;;;;6340306;22;20489;-61
2021/11/25 12:47:44;;;;;;;15.50;9.70;;;;;;;;;;6340764;22;20137;-61
2021/11/25 12:50:17;;;;;;;13.88;9.80;;;;;;;;;;6342162;22;20439;-60
2021/11/25 12:52:43;;;;;;;14.13;10.38;;;;;;;;;;6342161;22;20221;-62
2021/11/25 12:55:10;;;;;;;17.17;10.80;;;;;;;;;;6342390;22;20142;-61
2021/11/25 12:57:52;;;;;;;17.77;10.85;;;;;;;;;;6342871;22;20162;-61
2021/11/25 13:00:19;;;;;;;14.60;9.77;;;;;;;;;;6342086;22;20546;-60
2021/11/25 13:02:45;;;;;;;16.80;10.50;;;;;;;;;;6339885;22;20173;-60
2021/11/25 13:05:11;;;;;;;15.23;10.50;;;;;;;;;;6338883;22;20617;-62
2021/11/25 13:07:51;;;;;;;14.75;10.20;;;;;;;;;;6338875;22;20188;-61
2021/11/25 13:10:27;;;;;;;16.75;11.15;;;;;;;;;;6338755;22;20133;-59
2021/11/25 13:13:13;;;;;;;18.45;10.85;;;;;;;;;;6338935;22;20162;-61
2021/11/25 13:15:40;;;;;;;20.15;11.73;;;;;;;;;;6338518;22;20157;-61
2021/11/25 13:18:06;;;;;;;15.70;11.13;;;;;;;;;;6339212;22;20145;-62
2021/11/25 13:20:48;;;;;;;18.10;11.23;;;;;;;;;;6340415;22;20138;-62
2021/11/25 13:23:15;;;;;;;18.55;11.73;;;;;;;;;;6340076;22;20142;-61
2021/11/25 13:25:52;;;;;;;20.27;12.45;;;;;;;;;;6340092;22;20173;-62
2021/11/25 13:28:30;;;;;;;19.27;11.88;;;;;;;;;;6340135;22;20141;-62
2021/11/25 13:31:09;;;;;;;18.77;12.27;;;;;;;;;;6339887;22;20619;-62
2021/11/25 13:33:52;;;;;;;23.60;12.45;;;;;;;;;;6339955;22;20149;-62
2021/11/25 13:36:18;;;;;;;21.00;12.90;;;;;;;;;;6339630;22;20522;-62
2021/11/25 13:38:50;;;;;;;24.30;13.45;;;;;;;;;;6340074;22;20211;-61
2021/11/25 13:41:16;;;;;;;24.33;13.90;;;;;;;;;;6339865;22;20137;-62
2021/11/25 13:43:49;;;;;;;20.65;13.00;;;;;;;;;;6340040;22;20488;-60
2021/11/25 13:46:15;;;;;;;25.70;13.95;;;;;;;;;;6339334;22;20146;-62
2021/11/25 13:48:41;;;;;;;22.63;13.70;;;;;;;;;;6339448;22;20486;-62
2021/11/25 13:51:07;;;;;;;21.70;13.75;;;;;;;;;;6340037;22;20166;-62
2021/11/25 13:53:33;;;;;;;22.65;13.77;;;;;;;;;;6339551;22;20573;-62
2021/11/25 13:55:59;;;;;;;25.45;14.32;;;;;;;;;;6340353;22;20149;-62
2021/11/25 13:58:25;;;;;;;24.48;14.57;;;;;;;;;;6340044;22;20161;-62
2021/11/25 14:00:53;;;;;;;25.33;14.07;;;;;;;;;;6339594;22;20135;-62
2021/11/25 14:03:21;;;;;;;23.77;14.10;;;;;;;;;;6339448;22;20167;-62
2021/11/25 14:05:57;;;;;;;24.63;14.63;;;;;;;;;;6339851;22;20232;-62
2021/11/25 14:08:29;;;;;;;24.20;13.90;;;;;;;;;;6339168;22;20534;-62
2021/11/25 14:10:55;;;;;;;22.50;13.40;;;;;;;;;;6339477;22;20126;-61
2021/11/25 14:13:28;;;;;;;24.67;14.07;;;;;;;;;;6340239;22;20149;-62
2021/11/25 14:15:54;;;;;;;23.77;14.18;;;;;;;;;;6339723;22;20123;-61
2021/11/25 14:18:24;;;;;;;25.77;15.10;;;;;;;;;;6339231;22;20470;-60
2021/11/25 14:20:50;;;;;;;25.38;16.15;;;;;;;;;;6339412;22;20146;-61
2021/11/25 14:23:17;;;;;;;25.52;14.57;;;;;;;;;;6339691;22;20403;-61
2021/11/25 14:25:45;;;;;;;24.60;14.63;;;;;;;;;;6339390;22;20138;-62
2021/11/25 14:31:07;;;;;;;28.17;14.90;;;;;;;;;;6339281;22;20169;-61
2021/11/25 14:33:43;;;;;;;26.45;15.45;;;;;;;;;;6339657;22;20170;-61
2021/11/25 14:36:24;;;;;;;25.08;15.52;;;;;;;;;;6339038;22;20144;-62
2021/11/25 14:38:55;;;;;;;24.55;13.90;;;;;;;;;;6339630;22;20202;-61
2021/11/25 14:41:31;;;;;;;25.25;15.20;;;;;;;;;;6339398;22;20130;-62
2021/11/25 14:43:58;;;;;;;26.65;14.88;;;;;;;;;;6339357;22;20163;-61
2021/11/25 14:46:24;;;;;;;27.80;15.45;;;;;;;;;;6339658;22;20238;-61
2021/11/25 14:48:50;;;;;;;30.08;15.82;;;;;;;;;;6339278;22;20484;-61
2021/11/25 14:51:18;;;;;;;26.20;14.65;;;;;;;;;;6339353;22;20194;-61
2021/11/25 14:53:46;;;;;;;29.35;15.15;;;;;;;;;;6339237;22;20139;-61
2021/11/25 14:56:15;;;;;;;29.15;15.32;;;;;;;;;;6339401;22;20439;-61
2021/11/25 14:58:53;;;;;;;23.38;13.00;;;;;;;;;;6339656;22;20143;-61
2021/11/25 15:01:22;;;;;;;27.20;14.65;;;;;;;;;;6339403;22;20162;-61
2021/11/25 15:03:53;;;;;;;27.45;15.50;;;;;;;;;;6339297;22;20217;-61
2021/11/25 15:06:48;;;;;;;28.98;14.45;;;;;;;;;;6339865;22;20153;-61
2021/11/25 15:09:15;;;;;;;29.35;15.30;;;;;;;;;;6313533;22;20546;-61
2021/11/25 15:11:42;;;;;;;24.95;14.13;;;;;;;;;;6339387;22;20227;-61
2021/11/25 15:14:09;;;;;;;28.55;15.43;;;;;;;;;;6339546;22;20138;-61
2021/11/25 15:16:36;;;;;;;27.15;14.45;;;;;;;;;;6340054;22;20143;-61
2021/11/25 15:19:02;;;;;;;25.85;14.68;;;;;;;;;;6339621;22;20441;-61
2021/11/25 15:21:28;;;;;;;28.73;15.70;;;;;;;;;;6339417;22;20138;-61
2021/11/25 15:23:54;;;;;;;29.83;15.10;;;;;;;;;;6338962;22;20138;-61
2021/11/25 15:26:20;;;;;;;24.80;14.07;;;;;;;;;;6339204;22;20437;-62
2021/11/25 15:28:46;;;;;;;30.40;16.23;;;;;;;;;;6339262;22;20225;-61
2021/11/25 15:31:12;;;;;;;29.27;15.45;;;;;;;;;;6339234;22;20505;-61
2021/11/25 15:33:38;;;;;;;27.75;15.23;;;;;;;;;;6339504;22;20207;-61
2021/11/25 15:36:06;;;;;;;27.65;14.48;;;;;;;;;;6339217;22;20165;-61
2021/11/25 15:38:32;;;;;;;25.00;14.73;;;;;;;;;;6339486;22;20157;-61
2021/11/25 15:40:58;;;;;;;24.75;13.90;;;;;;;;;;6338880;22;20834;-60
2021/11/25 15:43:25;;;;;;;26.60;14.38;;;;;;;;;;6339139;22;20158;-60
2021/11/25 15:45:51;;;;;;;26.63;15.02;;;;;;;;;;6339110;22;20138;-61
2021/11/25 15:48:18;;;;;;;27.58;14.75;;;;;;;;;;6339199;22;20143;-60
2021/11/25 15:50:44;;;;;;;26.80;14.27;;;;;;;;;;6339540;22;20139;-60
2021/11/25 15:53:13;;;;;;;26.77;14.85;;;;;;;;;;6340350;22;20192;-61
2021/11/25 15:55:39;;;;;;;27.58;15.32;;;;;;;;;;6339602;22;20142;-60
2021/11/25 15:58:06;;;;;;;22.63;13.73;;;;;;;;;;6338971;22;20276;-62
2021/11/25 16:00:32;;;;;;;24.15;13.82;;;;;;;;;;6338722;22;20134;-62
2021/11/25 16:02:58;;;;;;;25.45;14.52;;;;;;;;;;6338739;22;20217;-62
2021/11/25 16:05:24;;;;;;;25.65;14.50;;;;;;;;;;6338726;22;20157;-62
2021/11/25 16:07:50;;;;;;;20.95;13.27;;;;;;;;;;6338523;22;20153;-62
2021/11/25 16:10:17;;;;;;;21.65;14.13;;;;;;;;;;6338711;22;20222;-62
2021/11/25 16:12:43;;;;;;;25.98;14.75;;;;;;;;;;6338657;22;20535;-62
2021/11/25 16:15:10;;;;;;;24.67;13.50;;;;;;;;;;6338817;22;20203;-62
2021/11/25 16:17:36;;;;;;;25.95;13.63;;;;;;;;;;6338596;22;20134;-62
2021/11/25 16:20:02;;;;;;;25.42;13.32;;;;;;;;;;6338935;22;20139;-62
2021/11/25 16:22:28;;;;;;;29.17;14.50;;;;;;;;;;6338997;22;20138;-62
2021/11/25 16:24:54;;;;;;;25.63;13.98;;;;;;;;;;6338399;22;20142;-61
2021/11/25 16:31:53;;;;;;;25.02;13.65;;;;;;;;;;5069991;28;20873;-61
2021/11/25 16:34:23;;;;;;;20.35;12.38;;;;;;;;;;5069952;28;20238;-61
2021/11/25 16:36:49;;;;;;;23.20;12.00;;;;;;;;;;5070129;28;20218;-61
2021/11/25 16:39:15;;;;;;;23.73;12.95;;;;;;;;;;5070005;28;20525;-61
2021/11/25 16:41:44;;;;;;;22.50;11.40;;;;;;;;;;5070450;28;20519;-60
2021/11/25 16:44:10;;;;;;;21.70;11.75;;;;;;;;;;5069937;28;20172;-60
2021/11/25 16:46:38;;;;;;;19.77;11.52;;;;;;;;;;5069949;28;20627;-60
2021/11/25 16:49:04;;;;;;;21.20;12.50;;;;;;;;;;5069869;28;20168;-60
2021/11/25 16:51:31;;;;;;;26.55;11.40;;;;;;;;;;5069987;28;20191;-60
2021/11/25 16:53:57;;;;;;;21.88;11.63;;;;;;;;;;5069902;28;20222;-60
2021/11/25 16:56:23;;;;;;;21.30;12.05;;;;;;;;;;5070060;28;20172;-60
2021/11/25 16:58:49;;;;;;;22.15;12.73;;;;;;;;;;5069932;28;20235;-60
2021/11/25 17:01:15;;;;;;;22.17;11.90;;;;;;;;;;5069872;28;20602;-59
2021/11/25 17:03:42;;;;;;;23.65;13.63;;;;;;;;;;5069752;28;20160;-61
2021/11/25 17:06:08;;;;;;;21.48;12.07;;;;;;;;;;5070054;28;20222;-62
2021/11/25 17:08:35;;;;;;;25.25;12.98;;;;;;;;;;5070274;28;20175;-61
2021/11/25 17:11:02;;;;;;;24.33;13.23;;;;;;;;;;5069849;28;20176;-60
2021/11/25 17:13:29;;;;;;;24.02;12.40;;;;;;;;;;5070411;28;20376;-60
2021/11/25 17:15:56;;;;;;;25.10;13.35;;;;;;;;;;5070050;28;20176;-60
2021/11/25 17:18:22;;;;;;;26.15;13.48;;;;;;;;;;5069523;28;20160;-60
2021/11/25 17:20:48;;;;;;;25.35;12.65;;;;;;;;;;5069619;28;20165;-61
2021/11/25 17:23:14;;;;;;;26.63;13.77;;;;;;;;;;5069374;28;20173;-61
2021/11/25 17:25:44;;;;;;;23.92;12.55;;;;;;;;;;5069230;28;20199;-60
2021/11/25 17:28:10;;;;;;;25.80;13.00;;;;;;;;;;5069438;28;20208;-60
2021/11/25 17:30:36;;;;;;;24.48;12.40;;;;;;;;;;5068683;28;20211;-61
2021/11/25 17:33:02;;;;;;;21.83;11.88;;;;;;;;;;5068972;28;20173;-61
2021/11/25 17:35:28;;;;;;;22.88;12.38;;;;;;;;;;5068899;28;20161;-61
2021/11/25 17:37:54;;;;;;;24.73;13.57;;;;;;;;;;5069123;28;20156;-60
2021/11/25 17:40:21;;;;;;;27.55;13.75;;;;;;;;;;5068766;28;20626;-61
2021/11/25 17:42:52;;;;;;;25.13;12.57;;;;;;;;;;5058459;28;20177;-61
2021/11/25 17:45:19;;;;;;;23.77;12.43;;;;;;;;;;5055501;28;20154;-61
2021/11/25 17:47:45;;;;;;;26.80;13.23;;;;;;;;;;5055555;28;20622;-61
2021/11/25 17:50:11;;;;;;;21.75;11.70;;;;;;;;;;5055734;28;20180;-61
2021/11/25 17:52:37;;;;;;;27.63;13.60;;;;;;;;;;5055808;28;20161;-61
2021/11/25 17:55:04;;;;;;;22.13;11.48;;;;;;;;;;5055872;28;20175;-61
2021/11/25 17:57:30;;;;;;;22.23;12.27;;;;;;;;;;5055315;28;20576;-61
2021/11/25 17:59:56;;;;;;;25.33;12.77;;;;;;;;;;5055205;28;20175;-61
2021/11/25 18:02:22;;;;;;;23.55;12.27;;;;;;;;;;5055378;28;20248;-61
2021/11/25 18:04:48;;;;;;;18.95;10.57;;;;;;;;;;5055211;28;20177;-59
2021/11/25 18:07:15;;;;;;;27.75;12.00;;;;;;;;;;5055216;28;20176;-60
2021/11/25 18:09:41;;;;;;;22.00;10.73;;;;;;;;;;5055032;28;20522;-62
2021/11/25 18:12:07;;;;;;;25.38;12.38;;;;;;;;;;5054805;28;20169;-62
2021/11/25 18:14:33;;;;;;;23.88;11.60;;;;;;;;;;5054784;28;20604;-60
2021/11/25 18:16:59;;;;;;;22.65;10.90;;;;;;;;;;5055007;28;20196;-59
2021/11/25 18:19:25;;;;;;;20.25;11.32;;;;;;;;;;5054945;28;20550;-61
2021/11/25 18:21:52;;;;;;;24.95;11.52;;;;;;;;;;5054572;28;20180;-61
2021/11/25 18:24:18;;;;;;;25.48;11.82;;;;;;;;;;5054909;28;20248;-61
2021/11/25 18:26:44;;;;;;;26.88;11.73;;;;;;;;;;5054937;28;20477;-61
2021/11/25 18:29:10;;;;;;;21.27;10.77;;;;;;;;;;5054625;28;20252;-61
2021/11/25 18:31:36;;;;;;;21.58;11.07;;;;;;;;;;5054339;28;20201;-60
2021/11/25 18:34:02;;;;;;;21.75;10.52;;;;;;;;;;5055312;28;20169;-61
2021/11/25 18:36:28;;;;;;;18.58;10.05;;;;;;;;;;5054800;28;20172;-61
2021/11/25 18:38:55;;;;;;;18.90;10.15;;;;;;;;;;5055363;28;20176;-61
2021/11/25 18:41:22;;;;;;;21.48;10.55;;;;;;;;;;5055936;28;20525;-61
2021/11/25 18:43:48;;;;;;;20.00;9.65;;;;;;;;;;5056054;28;20184;-61
2021/11/25 18:46:15;;;;;;;24.52;10.00;;;;;;;;;;5056091;28;20169;-61
2021/11/25 18:48:48;;;;;;;20.08;8.95;;;;;;;;;;5056574;28;20173;-61
2021/11/25 18:51:15;;;;;;;14.23;8.23;;;;;;;;;;5054873;28;20196;-61
2021/11/25 18:53:41;;;;;;;17.10;8.52;;;;;;;;;;5053878;28;20165;-61
2021/11/25 18:56:07;;;;;;;19.05;8.60;;;;;;;;;;5054323;28;20467;-61
2021/11/25 18:58:33;;;;;;;22.50;8.75;;;;;;;;;;5054338;28;20236;-61
2021/11/25 19:00:59;;;;;;;18.35;8.57;;;;;;;;;;5055374;28;20161;-61
2021/11/25 19:03:26;;;;;;;15.82;7.82;;;;;;;;;;5055857;28;20176;-61
2021/11/25 19:05:52;;;;;;;15.10;6.90;;;;;;;;;;5054736;28;20176;-61
2021/11/25 19:08:18;;;;;;;12.88;6.63;;;;;;;;;;5054500;28;20592;-60
2021/11/25 19:10:46;;;;;;;19.15;8.18;;;;;;;;;;5054321;28;20210;-60
2021/11/25 19:13:12;;;;;;;15.23;6.75;;;;;;;;;;5054094;28;20501;-60
2021/11/25 19:15:38;;;;;;;12.35;6.20;;;;;;;;;;5054197;28;20260;-61
2021/11/25 19:18:04;;;;;;;16.13;6.57;;;;;;;;;;5054172;28;20219;-61
2021/11/25 19:20:30;;;;;;;14.05;6.35;;;;;;;;;;5053789;28;20169;-61
2021/11/25 19:22:57;;;;;;;16.95;6.50;;;;;;;;;;5053785;28;20175;-61
2021/11/25 19:25:23;;;;;;;10.98;5.97;;;;;;;;;;5053738;28;20176;-61
2021/11/25 19:27:49;;;;;;;11.30;5.47;;;;;;;;;;5053771;28;20179;-61
2021/11/25 19:30:16;;;;;;;12.18;5.75;;;;;;;;;;5053964;28;20200;-59
2021/11/25 19:32:42;;;;;;;11.45;5.28;;;;;;;;;;5054312;28;20165;-60
2021/11/25 19:35:10;;;;;;;12.73;5.57;;;;;;;;;;5053911;28;20240;-60
2021/11/25 19:37:36;;;;;;;14.45;5.32;;;;;;;;;;5053836;28;20165;-61
2021/11/25 19:40:05;;;;;;;14.70;5.35;;;;;;;;;;5053457;28;20169;-60
2021/11/25 19:42:32;;;;;;;14.57;6.03;;;;;;;;;;5053589;28;20332;-59
2021/11/25 19:44:58;;;;;;;13.75;5.60;;;;;;;;;;5053482;28;20472;-60
2021/11/25 19:47:24;;;;;;;10.98;5.18;;;;;;;;;;5053251;28;20228;-61
2021/11/25 19:49:50;;;;;;;11.45;5.25;;;;;;;;;;5053264;28;20164;-62
2021/11/25 19:52:16;;;;;;;14.68;5.55;;;;;;;;;;5053276;28;20195;-60
2021/11/25 19:54:43;;;;;;;12.65;5.40;;;;;;;;;;5053078;28;20230;-62
2021/11/25 19:57:09;;;;;;;11.70;5.07;;;;;;;;;;5053255;28;20578;-62
2021/11/25 19:59:36;;;;;;;13.57;5.60;;;;;;;;;;5053499;28;20211;-61
2021/11/25 20:02:03;;;;;;;15.10;4.75;;;;;;;;;;5053067;28;20190;-61
2021/11/25 20:04:29;;;;;;;10.02;5.00;;;;;;;;;;5052603;28;20248;-62
2021/11/25 20:06:55;;;;;;;12.35;5.32;;;;;;;;;;5052982;28;20193;-62
2021/11/25 20:09:21;;;;;;;11.27;5.10;;;;;;;;;;5052861;28;20161;-60
2021/11/25 20:11:49;;;;;;;12.27;5.60;;;;;;;;;;5052871;28;20215;-60
2021/11/25 20:14:15;;;;;;;11.95;5.72;;;;;;;;;;5052529;28;20164;-61
2021/11/25 20:16:42;;;;;;;10.85;4.65;;;;;;;;;;5052472;28;20161;-61
2021/11/25 20:19:08;;;;;;;12.05;4.72;;;;;;;;;;5052853;28;20197;-61
2021/11/25 20:21:34;;;;;;;11.32;5.85;;;;;;;;;;5052745;28;20177;-61
2021/11/25 20:24:00;;;;;;;10.85;5.13;;;;;;;;;;5052770;28;20171;-61
2021/11/25 20:26:26;;;;;;;14.52;5.18;;;;;;;;;;5052227;28;20503;-61
2021/11/25 20:28:52;;;;;;;13.30;5.18;;;;;;;;;;5052506;28;20256;-61
2021/11/25 20:31:19;;;;;;;16.33;5.45;;;;;;;;;;5052214;28;20446;-60
2021/11/25 20:33:45;;;;;;;14.10;5.32;;;;;;;;;;5052355;28;20207;-61
2021/11/25 20:36:11;;;;;;;13.52;4.93;;;;;;;;;;5052643;28;20165;-61
2021/11/25 20:38:37;;;;;;;16.40;5.03;;;;;;;;;;5052509;28;20223;-61
2021/11/25 20:41:04;;;;;;;11.18;4.53;;;;;;;;;;5052251;28;20196;-61
2021/11/25 20:43:31;;;;;;;12.52;5.45;;;;;;;;;;5052520;28;20176;-61
2021/11/25 20:45:57;;;;;;;11.82;5.10;;;;;;;;;;5052640;28;20259;-61
2021/11/25 20:48:23;;;;;;;12.25;5.75;;;;;;;;;;5052463;28;20176;-61
2021/11/25 20:50:54;;;;;;;12.98;5.50;;;;;;;;;;5052389;28;20188;-61
2021/11/25 20:53:24;;;;;;;12.10;5.35;;;;;;;;;;5052467;28;20195;-61
2021/11/25 20:55:50;;;;;;;12.43;5.03;;;;;;;;;;5052409;28;20260;-61
2021/11/25 20:58:16;;;;;;;15.88;5.82;;;;;;;;;;5052778;28;20256;-61
2021/11/25 21:00:42;;;;;;;14.48;6.03;;;;;;;;;;5052657;28;20194;-60
2021/11/25 21:03:08;;;;;;;13.15;5.22;;;;;;;;;;5052999;28;20168;-61
2021/11/25 21:05:35;;;;;;;15.60;5.18;;;;;;;;;;5052816;28;20169;-61
2021/11/25 21:08:03;;;;;;;16.70;5.35;;;;;;;;;;5052655;28;20168;-61
2021/11/25 21:10:30;;;;;;;16.58;5.28;;;;;;;;;;5052876;28;20272;-60
2021/11/25 21:12:56;;;;;;;11.52;5.32;;;;;;;;;;5052596;28;20295;-60
2021/11/25 21:15:22;;;;;;;13.25;5.18;;;;;;;;;;5052518;28;20672;-62
2021/11/25 21:17:48;;;;;;;15.35;5.00;;;;;;;;;;5054449;28;20600;-62
2021/11/25 21:20:14;;;;;;;11.18;4.47;;;;;;;;;;5056401;28;20507;-62
2021/11/25 21:22:41;;;;;;;11.77;4.47;;;;;;;;;;5055952;28;20625;-61
2021/11/25 21:25:10;;;;;;;11.52;4.13;;;;;;;;;;5055778;28;20201;-62
2021/11/25 21:27:37;;;;;;;12.77;4.40;;;;;;;;;;5056112;28;20176;-62
2021/11/25 21:30:07;;;;;;;8.98;4.03;;;;;;;;;;5055778;28;20297;-61
2021/11/25 21:32:33;;;;;;;9.88;4.07;;;;;;;;;;5055617;28;20161;-61
2021/11/25 21:34:59;;;;;;;10.65;3.85;;;;;;;;;;5055997;28;20465;-61
2021/11/25 21:37:25;;;;;;;6.50;3.08;;;;;;;;;;5055782;28;20157;-60
2021/11/25 21:39:51;;;;;;;12.02;3.42;;;;;;;;;;5055625;28;20175;-62
2021/11/25 21:42:17;;;;;;;13.50;3.33;;;;;;;;;;5055538;28;20169;-61
2021/11/25 21:44:43;;;;;;;10.60;2.97;;;;;;;;;;5055456;28;20511;-61